Keetley, Utah
Current Conditions -  °F | °C
As of 12:55 PM on Friday 24 Oct 2014 (Local Time) from K36U Reporting Station
Clear Clear  
Wind Chill: 72°   Ceiling: Unl
Heat Index: 72°   Visibility: 10mi
Dew Point: 28°   Wind: 21mph
Humidity: 20%   Direction: 230°SW
Pressure: 30.22"   Gusts: 24mph
Location:  40.2386°N, 111.149°W
Report Text: K36U 241855Z AUTO 23018G21KT 10SM CLR 22/M02 A3022 RMK AO2
Loading
Personal Weather Stations






























Interactive Weather Map
Tropical Storm Tracking
New forecast layout! Learn more

10-Day Weather Forecast

Advertisements
Track Severe Weather on mobile